Latest Coastal Weather Observations for Cape Grim

IDV60701

Issued at 6:12 am EDT Monday 27 February 2017 (issued every 10 minutes, with the page automatically refreshed every 10 minutes)

About coastal observations | Map of coastal stations | Coastal observations for VIC | Marine services | Other Formats
Station Details ID: 091331 Name: CAPE GRIM Lat: -40.68 Lon: 144.69 Height: 86.0 m
Data from the previous 72 hours. | See also: Recent months at Cape Grim
Date/Time
EDT
Temp
°C
Wind Pressure Rain since
9am
mm
Weather Cloud Vis
km
Sea
Height
m
Swell
Dir  Spd
kts
Gust
kts
hPa Trend Height
m
Period
s
Dir
27/06:00am 15.5 ENE 21 26 1023.5 - 0.0 - - - - - - -
27/05:30am 15.6 ENE 22 27 1023.2 - 0.0 - - - - - - -
27/05:00am 15.6 ENE 22 27 1023.0 - 0.0 - - - - - - -
27/04:30am 15.7 ENE 23 28 1022.9 - 0.0 - - - - - - -
27/04:00am 15.6 ENE 22 27 1023.1 - 0.0 - - - - - - -
27/03:30am 15.7 ENE 21 25 1023.4 - 0.0 - - - - - - -
27/03:00am 15.7 ENE 22 28 1023.5 - 0.0 - - - - - - -
27/02:30am 15.8 ENE 22 27 1023.3 - 0.0 - - - - - - -
27/02:00am 15.7 ENE 21 26 1023.8 - 0.0 - - - - - - -
27/01:30am 15.6 ENE 20 28 1024.0 - 0.0 - - - - - - -
27/01:07am 15.7 ENE 19 29 1024.1 - 0.0 - - - - - - -
27/01:00am 15.7 ENE 20 25 1024.1 - 0.0 - - - - - - -
27/12:30am 15.7 ENE 21 27 1024.0 - 0.0 - - - - - - -
27/12:00am 15.8 ENE 20 25 1024.1 - 0.0 - - - - - - -
 
Date/Time
EDT
Temp
°C
Wind Pressure Rain since
9am
mm
Weather Cloud Vis
km
Sea
Height
m
Swell
Dir  Spd
kts
Gust
kts
hPa Trend Height
m
Period
s
Dir
26/11:30pm 15.6 ENE 21 27 1024.1 - 0.0 - - - - - - -
26/11:00pm 15.6 ENE 22 27 1024.1 - 0.0 - - - - - - -
26/10:30pm 15.4 E 21 25 1024.2 - 0.0 - - - - - - -
26/10:00pm 15.3 E 20 24 1024.3 - 0.0 - - - - - - -
26/09:30pm 15.3 E 19 24 1024.2 - 0.0 - - - - - - -
26/09:00pm 15.4 E 19 24 1024.0 - 0.0 - - - - - - -
26/08:30pm 15.7 E 21 27 1023.7 - 0.0 - - - - - - -
26/08:00pm 16.0 E 21 27 1023.8 - 0.0 - - - - - - -
26/07:30pm 16.5 ENE 20 25 1023.8 - 0.0 - - - - - - -
26/07:00pm 16.5 E 21 27 1023.7 - 0.0 - - - - - - -
26/06:30pm 17.4 E 23 28 1023.5 - 0.0 - - - - - - -
26/06:00pm 17.9 E 23 30 1023.1 - 0.0 - - - - - - -
26/05:30pm 18.3 ENE 24 30 1022.9 - 0.0 - - - - - - -
26/05:00pm 18.8 ENE 23 30 1023.1 - 0.0 - - - - - - -
26/04:30pm 18.7 ENE 24 31 1023.4 - 0.0 - - - - - - -
26/04:00pm 19.1 ENE 24 31 1023.4 - 0.0 - - - - - - -
26/03:30pm 19.3 ENE 25 32 1023.4 - 0.0 - - - - - - -
26/03:00pm 19.7 ENE 24 34 1023.8 - 0.0 - - - - - - -
26/02:59pm 19.5 ENE 24 34 1023.8 - 0.0 - - - - - - -
26/02:30pm 20.1 ENE 24 30 1024.1 - 0.0 - - - - - - -
26/02:00pm 19.8 ENE 23 29 1024.2 - 0.0 - - - - - - -
26/01:30pm 19.4 E 23 29 1024.5 - 0.0 - - - - - - -
26/01:00pm 19.0 ENE 23 30 1024.9 - 0.0 - - - - - - -
26/12:30pm 19.8 ENE 21 28 1025.2 - 0.0 - - - - - - -
26/12:00pm 18.7 ENE 23 28 1025.3 - 0.0 - - - - - - -
26/11:30am 19.1 ENE 22 27 1025.5 - 0.0 - - - - - - -
26/11:00am 18.5 ENE 21 26 1025.6 - 0.0 - - - - - - -
26/10:30am 18.3 ENE 19 24 1025.7 - 0.0 - - - - - - -
26/10:00am 18.1 ENE 19 23 1025.6 - 0.0 - - - - - - -
26/09:30am 17.6 ENE 19 24 1025.3 - 0.0 - - - - - - -
26/09:00am 16.8 ENE 19 23 1025.1 - 0.0 - - - - - - -
26/08:30am 16.2 ENE 17 24 1025.1 - 0.0 - - - - - - -
26/08:00am 15.4 ENE 15 19 1025.2 - 0.0 - - - - - - -
26/07:30am 14.7 ENE 15 19 1025.0 - 0.0 - - - - - - -
26/07:00am 14.4 ENE 15 18 1024.7 - 0.0 - - - - - - -
26/06:30am 14.4 ENE 13 17 1024.5 - 0.0 - - - - - - -
26/06:00am 14.0 ENE 14 17 1024.3 - 0.0 - - - - - - -
26/05:30am 14.1 ENE 14 17 1024.2 - 0.0 - - - - - - -
26/05:00am 13.7 NE 14 17 1023.9 - 0.0 - - - - - - -
26/04:30am 11.8 ENE 11 13 1023.8 - 0.0 - Partly cloudy - - - - -
26/04:00am 11.9 ESE 10 11 1024.3 - 0.0 - - - - - - -
26/03:30am 12.0 ESE 10 11 1024.5 - 0.0 - - - - - - -
26/03:00am 12.5 ESE 9 11 1024.8 - 0.0 - - - - - - -
26/02:30am 12.4 ESE 10 11 1024.6 - 0.0 - - - - - - -
26/02:00am 12.4 ESE 9 10 1025.1 - 0.0 - - - - - - -
26/01:30am 12.6 ESE 9 10 1025.3 - 0.0 - Partly cloudy - - - - -
26/01:00am 14.0 ESE 8 10 1025.8 - 0.0 - Cloudy - - - - -
26/12:30am 14.1 SE 10 11 1026.2 - 0.0 - Cloudy - - - - -
26/12:00am 13.9 ESE 11 13 1026.2 - 0.0 - Cloudy - - - - -
 
Date/Time
EDT
Temp
°C
Wind Pressure Rain since
9am
mm
Weather Cloud Vis
km
Sea
Height
m
Swell
Dir  Spd
kts
Gust
kts
hPa Trend Height
m
Period
s
Dir
25/11:30pm 13.9 SE 10 11 1026.1 - 0.0 - Cloudy - - - - -
25/11:00pm 14.3 ESE 9 10 1026.1 - 0.0 - Cloudy - - - - -
25/10:30pm 14.3 SE 8 9 1025.9 - 0.0 - Partly cloudy - - - - -
25/10:00pm 14.5 SE 7 9 1026.1 - 0.0 - Partly cloudy - - - - -
25/09:30pm 14.4 SSE 6 7 1026.0 - 0.0 - Partly cloudy - - - - -
25/09:00pm 14.6 SSE 5 6 1025.6 - 0.0 - Cloudy - - - - -
25/08:30pm 14.8 SSE 5 7 1025.4 - 0.0 - Cloudy - - - - -
25/08:00pm 15.0 SSE 6 8 1025.6 - 0.0 - Partly cloudy - - - - -
25/07:30pm 16.0 NE 4 6 1025.3 - 0.0 - Partly cloudy - - - - -
25/07:00pm 16.0 NE 5 7 1025.4 - 0.0 - Cloudy - - - - -
25/06:30pm 16.2 ENE 8 10 1025.2 - 0.0 - Partly cloudy - - - - -
25/06:00pm 16.6 ENE 9 12 1024.9 - 0.0 - Cloudy - - - - -
25/05:30pm 16.5 ENE 9 11 1025.0 - 0.0 - Partly cloudy - - - - -
25/05:00pm 16.4 ENE 11 16 1025.4 - 0.0 - Cloudy - - - - -
25/04:30pm 15.5 E 10 14 1025.5 - 0.0 - Partly cloudy - - - - -
25/04:00pm 17.2 ENE 14 17 1025.4 - 0.0 - Partly cloudy - - - - -
25/03:30pm 18.1 E 15 20 1025.4 - 0.0 - Cloudy - - - - -
25/03:00pm 19.4 ENE 15 21 1025.5 - 0.0 - Cloudy - - - - -
25/02:30pm 18.3 ENE 16 21 1025.8 - 0.0 - Partly cloudy - - - - -
25/02:00pm 18.1 E 15 20 1025.8 - 0.0 - Cloudy - - - - -
25/01:30pm 17.9 E 13 19 1025.8 - 0.0 - Partly cloudy - - - - -
25/01:00pm 16.8 E 16 20 1026.0 - 0.0 - Cloudy - - - - -
25/12:30pm 16.9 E 16 19 1025.9 - 0.0 - Cloudy - - - - -
25/12:00pm 17.9 E 17 21 1025.8 - 0.0 - Mostly cloudy - - - - -
25/11:30am 17.6 E 16 22 1025.6 - 0.0 - Partly cloudy - - - - -
25/11:00am 16.7 SE 12 18 1025.9 - 0.0 - Partly cloudy - - - - -
25/10:30am 13.9 SSE 13 16 1026.1 - 0.0 - Cloudy - - - - -
25/10:00am 13.5 SSE 12 16 1026.0 - 0.0 - Cloudy - - - - -
25/09:30am 13.0 SSE 12 15 1025.9 - 0.0 - Cloudy - - - - -
25/09:00am 12.2 SSE 14 21 1025.6 - 0.0 - Mostly cloudy - - - - -
25/08:30am 11.8 S 16 23 1025.6 - 0.0 - Cloudy - - - - -
25/08:00am 11.6 S 16 21 1025.4 - 0.0 - Partly cloudy - - - - -
25/07:30am 11.5 S 17 23 1025.2 - 0.0 - Partly cloudy - - - - -
25/07:00am 11.7 S 18 26 1025.0 - 0.0 - Partly cloudy - - - - -
25/06:46am 11.7 S 19 29 1024.7 - 0.0 - Partly cloudy - - - - -
25/06:30am 11.6 S 19 26 1024.7 - 0.0 - Partly cloudy - - - - -
25/06:00am 11.4 S 17 27 1024.5 - 0.0 - Mostly clear - - - - -
25/05:30am 11.3 S 18 25 1024.3 - 0.0 - - - - - - -
25/05:00am 11.3 S 17 21 1024.3 - 0.0 - - - - - - -
25/04:30am 11.6 S 16 24 1024.3 - 0.0 - - - - - - -
25/04:08am 11.9 S 15 25 1024.5 - 0.0 - - - - - - -
25/04:00am 12.1 S 16 23 1024.6 - 0.0 - - - - - - -
25/03:30am 12.2 S 17 23 1024.8 - 0.0 - - - - - - -
25/03:00am 11.7 S 13 20 1024.9 - 0.0 - Cloudy - - - - -
25/02:30am 12.1 SSE 12 16 1025.3 - 0.0 - Partly cloudy - - - - -
25/02:00am 12.9 S 15 23 1025.1 - 0.0 - Partly cloudy - - - - -
25/01:30am 12.9 S 15 19 1025.1 - 0.0 - - - - - - -
25/01:00am 12.8 S 15 23 1025.1 - 0.0 - - - - - - -
25/12:30am 12.9 S 15 22 1025.0 - 0.0 - - - - - - -
25/12:00am 12.5 S 13 17 1025.3 - 0.0 - Mostly cloudy - - - - -
 
Date/Time
EDT
Temp
°C
Wind Pressure Rain since
9am
mm
Weather Cloud Vis
km
Sea
Height
m
Swell
Dir  Spd
kts
Gust
kts
hPa Trend Height
m
Period
s
Dir
24/11:30pm 12.6 S 13 18 1025.6 - 0.0 - - - - - - -
24/11:00pm 12.8 S 13 19 1025.6 - 0.0 - Partly cloudy - - - - -
24/10:30pm 12.9 S 13 17 1025.7 - 0.0 - - - - - - -
24/10:00pm 13.0 S 12 17 1025.7 - 0.0 - - - - - - -
24/09:30pm 13.5 SSW 17 23 1025.5 - 0.0 - - - - - - -
24/09:00pm 13.6 SSW 17 26 1025.2 - 0.0 - Mostly cloudy - - - - -
24/08:30pm 13.7 SSW 20 27 1024.8 - 0.0 - Partly cloudy - - - - -
24/08:00pm 13.9 SSW 21 28 1024.4 - 0.0 - Partly cloudy - - - - -
24/07:36pm 14.1 SSW 19 29 1024.3 - 0.0 - Partly cloudy - - - - -
24/07:30pm 14.2 SSW 20 27 1024.2 - 0.0 - Partly cloudy - - - - -
24/07:00pm 14.8 SW 20 28 1024.0 - 0.0 - Partly cloudy - - - - -
24/06:49pm 14.5 SSW 19 29 1024.0 - 0.0 - - - - - - -
24/06:30pm 14.8 SW 21 27 1024.0 - 0.0 - Partly cloudy - - - - -
24/06:00pm 15.0 SW 18 25 1023.8 - 0.0 - Cloudy - - - - -
24/05:30pm 15.0 SSW 18 27 1023.6 - 0.0 - Partly cloudy - - - - -
24/05:20pm 14.3 SW 19 29 1023.5 - 0.0 - Partly cloudy - - - - -
24/05:00pm 15.0 SW 24 29 1023.4 - 0.0 - Partly cloudy - - - - -
24/04:30pm 16.2 SW 22 26 1023.1 - 0.0 - Partly cloudy - - - - -
24/04:00pm 16.4 SW 19 32 1023.3 - 0.0 - Partly cloudy - - - - -
24/03:30pm 16.4 SW 17 26 1023.3 - 0.0 - Partly cloudy - - - - -
24/03:00pm 16.7 SW 20 27 1023.5 - 0.0 - Partly cloudy - - - - -
24/02:30pm 16.3 SW 17 23 1023.6 - 0.0 - Partly cloudy - - - - -
24/02:12pm 16.7 WSW 15 25 1023.7 - 0.0 - Partly cloudy - - - - -
24/02:00pm 16.1 WSW 12 20 1023.7 - 0.0 - Partly cloudy - - - - -
24/01:30pm 16.1 WSW 11 19 1023.6 - 0.0 - - - - - - -
24/01:00pm 15.7 WSW 12 20 1023.6 - 0.0 - Partly cloudy - - - - -
24/12:30pm 16.2 SW 14 20 1023.8 - 0.0 - Partly cloudy - - - - -
24/12:07pm 15.0 SW 17 27 1023.8 - 0.0 - Partly cloudy - - - - -
24/12:00pm 14.6 SW 23 29 1024.0 - 0.0 - Cloudy - - - - -
24/11:33am 16.0 SW 20 34 1023.7 - 0.0 - Partly cloudy - - - - -
24/11:30am 16.3 SW 20 27 1023.8 - 0.0 - Partly cloudy - - - - -
24/11:18am 16.1 SW 15 26 1023.8 - 0.0 - Partly cloudy - - - - -
24/11:00am 15.9 WSW 12 22 1023.8 - 0.0 - Cloudy - - - - -
24/10:30am 15.8 WSW 10 19 1023.7 - 0.0 - Partly cloudy - - - - -
24/10:00am 15.2 SW 11 19 1023.6 - 0.0 - Cloudy - - - - -
24/09:37am 15.2 SW 15 25 1023.4 - 0.0 - Cloudy - - - - -
24/09:30am 15.3 SW 13 22 1023.4 - 0.0 - Cloudy - - - - -
24/09:00am 15.2 SW 16 26 1023.2 - 0.0 - Cloudy - - - - -
24/08:53am 15.2 SW 15 26 1023.1 - 0.0 - Cloudy - - - - -
24/08:30am 14.9 WSW 11 23 1022.8 - 0.0 - Cloudy - - - - -
24/08:00am 15.0 SW 13 20 1022.4 - 0.0 - Cloudy - - - - -
24/07:30am 14.8 SW 19 24 1022.2 - 0.0 - Cloudy - - - - -
24/07:00am 14.7 SW 21 27 1021.8 - 0.0 - Cloudy - - - - -
24/06:39am 14.7 SW 15 25 1021.7 - 0.0 - Partly cloudy - - - - -
24/06:30am 14.6 SW 14 21 1021.6 - 0.0 - Cloudy - - - - -

Other Formats:

Comma delimited format used in spreadsheet applications
http://www.bom.gov.au/fwo/IDV60701/IDV60701.95954.axf

JavaScript Object Notation format (JSON) in row-major order
http://www.bom.gov.au/fwo/IDV60701/IDV60701.95954.json